createdAt,value
2022-10-26T04:05:04.973Z,100.00
2022-10-26T04:08:08.631Z,100.00
2022-10-26T04:11:11.365Z,100.00
2022-10-26T04:14:14.478Z,100.00
2022-10-26T04:17:17.082Z,100.00
2022-10-26T04:20:19.852Z,100.00
2022-10-26T04:23:22.480Z,100.00
2022-10-26T04:26:25.320Z,100.00
2022-10-26T04:29:27.825Z,100.00
2022-10-26T04:32:30.568Z,100.00
2022-10-26T04:35:33.320Z,100.00
2022-10-26T04:38:36.356Z,100.00
2022-10-26T04:41:38.865Z,100.00
2022-10-26T04:44:41.636Z,100.00
2022-10-26T04:47:44.173Z,100.00
2022-10-26T04:50:47.532Z,100.00
2022-10-26T04:53:50.118Z,100.00
2022-10-26T04:56:52.835Z,100.00
2022-10-26T05:00:00.520Z,100.00
2022-10-26T05:03:05.525Z,100.00
2022-10-26T05:06:08.053Z,100.00
2022-10-26T05:09:11.033Z,100.00
2022-10-26T05:12:13.491Z,100.00
2022-10-26T05:15:16.207Z,100.00
2022-10-26T05:18:18.814Z,100.00
2022-10-26T05:21:21.631Z,100.00
2022-10-26T05:24:24.185Z,100.00
2022-10-26T05:27:26.979Z,100.00
2022-10-26T05:30:30.410Z,100.00
2022-10-26T05:33:33.121Z,100.00
2022-10-26T05:36:35.544Z,100.00
2022-10-26T05:39:38.477Z,100.00
2022-10-26T05:42:40.955Z,100.00
2022-10-26T05:45:43.894Z,100.00
2022-10-26T05:48:46.463Z,100.00
2022-10-26T05:51:49.262Z,100.00
2022-10-26T05:54:51.889Z,100.00
2022-10-26T05:57:55.237Z,100.00
2022-10-26T06:01:18.228Z,100.00
2022-10-26T06:04:33.255Z,100.00
2022-10-26T06:07:36.053Z,100.00
2022-10-26T06:10:39.454Z,100.00
2022-10-26T06:13:42.169Z,100.00
2022-10-26T06:17:01.872Z,100.00
2022-10-26T06:20:39.631Z,100.00
2022-10-26T06:24:11.628Z,100.00
2022-10-26T06:27:38.898Z,100.00
2022-10-26T06:30:42.037Z,100.00
2022-10-26T06:33:44.809Z,100.00
2022-10-26T06:36:49.849Z,100.00
2022-10-26T06:39:54.797Z,100.00
2022-10-26T06:43:00.651Z,100.00
2022-10-26T06:59:48.457Z,100.00
2022-10-26T07:02:51.819Z,100.00
2022-10-26T07:05:54.934Z,100.00
2022-10-26T07:08:57.690Z,100.00
2022-10-26T07:12:00.372Z,100.00
2022-10-26T07:15:03.993Z,100.00
2022-10-26T07:18:07.983Z,100.00
2022-10-26T07:21:10.713Z,100.00
2022-10-26T07:24:13.109Z,100.00
2022-10-26T07:27:16.381Z,100.00
2022-10-26T07:30:18.975Z,100.00
2022-10-26T07:33:21.893Z,100.00
2022-10-26T07:36:24.474Z,100.00
2022-10-26T07:39:27.700Z,100.00
2022-10-26T07:42:30.180Z,100.00
2022-10-26T07:45:33.355Z,100.00
2022-10-26T07:48:35.801Z,100.00
2022-10-26T07:51:38.616Z,100.00
2022-10-26T07:54:41.303Z,100.00
2022-10-26T07:57:44.127Z,100.00
2022-10-26T08:00:46.725Z,100.00
2022-10-26T08:03:53.483Z,100.00
2022-10-26T08:06:55.897Z,100.00
2022-10-26T08:09:58.669Z,100.00
2022-10-26T08:13:01.093Z,100.00
2022-10-26T08:16:05.545Z,100.00
2022-10-26T08:19:08.117Z,100.00
2022-10-26T08:22:10.913Z,100.00
2022-10-26T08:25:16.353Z,100.00
2022-10-26T08:28:21.751Z,100.00
2022-10-26T08:31:24.388Z,100.00
2022-10-26T08:34:27.188Z,100.00
2022-10-26T08:37:29.893Z,100.00
2022-10-26T08:40:36.801Z,100.00
2022-10-26T08:43:54.719Z,100.00
2022-10-26T08:47:14.243Z,100.00
2022-10-26T08:50:25.365Z,99.38
2022-10-26T08:53:41.618Z,98.50
2022-10-26T08:56:52.927Z,97.71
2022-10-26T09:00:06.556Z,97.91
2022-10-26T09:03:14.427Z,97.99
2022-10-26T09:06:44.893Z,97.02
2022-10-26T09:09:59.827Z,97.11
2022-10-26T09:13:14.752Z,95.42
2022-10-26T09:16:23.224Z,96.51
2022-10-26T09:19:34.939Z,97.40
2022-10-26T09:22:52.527Z,95.61
2022-10-26T09:26:00.554Z,95.56
2022-10-26T09:29:06.812Z,94.02
2022-10-26T09:32:21.388Z,93.70
2022-10-26T09:35:33.971Z,93.01
2022-10-26T09:38:55.907Z,92.73
2022-10-26T09:42:22.290Z,93.66
2022-10-26T09:45:35.898Z,90.77
2022-10-26T09:48:45.364Z,92.91
2022-10-26T09:51:48.890Z,93.24
2022-10-26T09:54:51.359Z,93.52
2022-10-26T09:57:57.312Z,90.90
2022-10-26T10:01:00.028Z,91.38
2022-10-26T10:04:20.153Z,91.75
2022-10-26T10:07:22.586Z,91.07
2022-10-26T10:10:25.208Z,90.15
2022-10-26T10:13:33.397Z,87.97
2022-10-26T10:16:36.438Z,86.94
2022-10-26T10:19:39.394Z,88.16
2022-10-26T10:22:54.480Z,91.17
2022-10-26T10:26:13.304Z,93.42
2022-10-26T10:29:16.413Z,94.82
2022-10-26T10:32:21.318Z,93.71
2022-10-26T10:35:29.545Z,94.62
2022-10-26T10:38:38.756Z,94.98
2022-10-26T10:41:45.184Z,95.70
2022-10-26T10:44:53.220Z,95.42
2022-10-26T10:48:04.023Z,94.46
2022-10-26T10:51:12.544Z,93.01
2022-10-26T10:54:25.456Z,93.20
2022-10-26T10:57:39.521Z,93.50
2022-10-26T11:00:48.299Z,92.04
2022-10-26T11:04:20.705Z,91.02
2022-10-26T11:07:25.958Z,90.47
2022-10-26T11:10:34.327Z,90.79
2022-10-26T11:13:41.620Z,92.62
2022-10-26T11:16:49.050Z,92.74
2022-10-26T11:19:59.647Z,93.08
2022-10-26T11:23:26.121Z,90.53
2022-10-26T11:26:35.547Z,90.83
2022-10-26T11:29:55.143Z,91.55
2022-10-26T11:33:20.935Z,90.95
2022-10-26T11:36:25.181Z,92.16
2022-10-26T11:39:46.434Z,90.72
2022-10-26T11:42:57.890Z,86.17
2022-10-26T11:46:22.121Z,88.57
2022-10-26T11:49:42.206Z,82.67
2022-10-26T11:52:52.819Z,83.35
2022-10-26T11:55:57.560Z,82.08
2022-10-26T12:02:25.175Z,81.26
2022-10-26T12:05:40.295Z,84.01
2022-10-26T12:08:48.480Z,86.91
2022-10-26T12:12:06.415Z,88.58
2022-10-26T12:15:18.206Z,89.42
2022-10-26T12:18:36.865Z,89.00
2022-10-26T12:21:44.266Z,88.01
2022-10-26T12:25:24.723Z,88.08
2022-10-26T12:28:36.304Z,86.71
2022-10-26T12:31:38.972Z,85.16
2022-10-26T12:34:41.291Z,85.09
2022-10-26T12:37:43.997Z,83.34
2022-10-26T12:40:46.609Z,83.83
2022-10-26T12:43:49.915Z,84.85
2022-10-26T12:46:52.409Z,83.53
2022-10-26T12:50:18.552Z,81.78
2022-10-26T12:53:22.304Z,80.90
2022-10-26T12:56:35.736Z,81.65
2022-10-26T12:59:58.133Z,80.71
2022-10-26T13:03:21.514Z,81.79
2022-10-26T13:06:49.771Z,82.88
2022-10-26T13:09:58.102Z,82.01
2022-10-26T13:13:02.881Z,84.11
2022-10-26T13:16:11.140Z,84.25
2022-10-26T13:19:42.413Z,84.95
2022-10-26T13:22:47.930Z,84.54
2022-10-26T13:26:12.816Z,85.11
2022-10-26T13:29:16.080Z,84.29
2022-10-26T13:32:18.987Z,84.46
2022-10-26T13:35:24.558Z,85.90
2022-10-26T13:38:32.488Z,85.39
2022-10-26T13:41:38.975Z,86.51
2022-10-26T13:45:06.685Z,87.75
2022-10-26T13:48:20.451Z,88.87
2022-10-26T13:51:26.230Z,91.31
2022-10-26T13:54:46.299Z,92.12
2022-10-26T13:58:19.656Z,92.36
2022-10-26T14:01:25.896Z,92.76
2022-10-26T14:04:29.132Z,93.67
2022-10-26T14:07:37.616Z,94.97
2022-10-26T14:10:43.245Z,96.09
2022-10-26T14:13:48.808Z,95.79
2022-10-26T14:16:53.553Z,96.86
2022-10-26T14:19:56.927Z,97.04
2022-10-26T14:22:59.588Z,97.03
2022-10-26T14:26:03.112Z,97.05
2022-10-26T14:29:17.379Z,97.56
2022-10-26T14:32:33.509Z,98.25
2022-10-26T14:35:37.618Z,97.62
2022-10-26T14:38:45.600Z,97.67
2022-10-26T14:41:50.559Z,98.02
2022-10-26T14:44:53.234Z,98.58
2022-10-26T14:47:56.828Z,99.24
2022-10-26T14:50:59.701Z,100.00
2022-10-26T14:54:03.846Z,100.00
2022-10-26T14:57:36.719Z,99.93
2022-10-26T15:00:40.430Z,100.00
2022-10-26T15:03:51.149Z,100.00
2022-10-26T15:07:02.644Z,100.00
2022-10-26T15:10:06.156Z,100.00
2022-10-26T15:13:33.667Z,100.00
2022-10-26T15:16:36.272Z,100.00
2022-10-26T15:19:40.053Z,100.00
2022-10-26T15:22:54.069Z,100.00
2022-10-26T15:26:01.556Z,100.00
2022-10-26T15:29:04.058Z,100.00
2022-10-26T15:32:31.338Z,100.00
2022-10-26T15:35:33.893Z,100.00
2022-10-26T15:38:36.894Z,100.00
2022-10-26T15:41:46.921Z,100.00
2022-10-26T15:44:53.124Z,100.00
2022-10-26T15:47:58.949Z,100.00
2022-10-26T15:51:01.853Z,100.00
2022-10-26T15:54:05.215Z,100.00
